Terminal Aerodrome Forecast
Issued by NWS

Home | Current Version | Previous Version | Text Only | Print | Product List | Glossary On
Versions: 1 2 3 4 5 6 7 8 9 10 11 12 13 14
000
FTUS45 KFGZ 311130
TAFGCN
TAF
KGCN 311130Z 3112/0112 VRB04KT P6SM SCT100 SCT200
     FM311900 21008KT P6SM SCT070 BKN120
      TEMPO 3119/3123 TSRA BKN040CB OVC080
     FM010000 VRB05KT P6SM SCT060 BKN090 PROB30 0100/0106 -TSRA
      BKN060CB=

USA.gov is the U.S. government's official web portal to all federal, state and local government web resources and services.